Terminal Aerodrome Forecast
Issued by NWS

Home | Current Version | Previous Version | Text Only | Print | Product List | Glossary On
Versions: 1 2 3 4 5 6 7 8 9 10 11 12 13 14 15 16 17 18 19 20 21 22 23 24 25 26
000
FTUS41 KBUF 261500 AAA
TAFJHW
TAF AMD
KJHW 261500Z 2615/2712 35007KT P6SM BKN040
     FM261800 34012KT P6SM BKN040
     FM270000 31006KT P6SM OVC025
     FM270900 29006KT 2SM -DZ VCSH OVC007
      AMD LTD TO CLD VIS AND WIND=

USA.gov is the U.S. government's official web portal to all federal, state and local government web resources and services.